sensor_id;sensor_type;location;lat;lon;timestamp;P1;durP1;ratioP1;P2;durP2;ratioP2
16543;SDS011;8384;47.996;7.786;2022-08-19T00:01:30;13.70;;;12.60;;
16543;SDS011;8384;47.996;7.786;2022-08-19T00:03:57;13.30;;;12.30;;
16543;SDS011;8384;47.996;7.786;2022-08-19T00:06:23;16.02;;;14.73;;
16543;SDS011;8384;47.996;7.786;2022-08-19T00:08:48;17.67;;;16.27;;
16543;SDS011;8384;47.996;7.786;2022-08-19T00:11:16;16.10;;;14.87;;
16543;SDS011;8384;47.996;7.786;2022-08-19T00:13:41;16.77;;;15.50;;
16543;SDS011;8384;47.996;7.786;2022-08-19T00:16:06;15.40;;;14.20;;
16543;SDS011;8384;47.996;7.786;2022-08-19T00:18:32;15.10;;;14.00;;
16543;SDS011;8384;47.996;7.786;2022-08-19T00:20:58;14.30;;;13.20;;
16543;SDS011;8384;47.996;7.786;2022-08-19T00:23:24;14.48;;;13.38;;
16543;SDS011;8384;47.996;7.786;2022-08-19T00:25:49;14.27;;;13.27;;
16543;SDS011;8384;47.996;7.786;2022-08-19T00:28:15;13.90;;;12.87;;
16543;SDS011;8384;47.996;7.786;2022-08-19T00:30:41;12.73;;;11.83;;
16543;SDS011;8384;47.996;7.786;2022-08-19T00:33:06;12.97;;;12.00;;
16543;SDS011;8384;47.996;7.786;2022-08-19T00:35:33;11.30;;;10.40;;
16543;SDS011;8384;47.996;7.786;2022-08-19T00:37:58;11.20;;;10.30;;
16543;SDS011;8384;47.996;7.786;2022-08-19T00:40:24;11.48;;;10.63;;
16543;SDS011;8384;47.996;7.786;2022-08-19T00:42:50;12.02;;;11.13;;
16543;SDS011;8384;47.996;7.786;2022-08-19T00:45:19;12.18;;;11.27;;
16543;SDS011;8384;47.996;7.786;2022-08-19T00:47:47;11.55;;;10.65;;
16543;SDS011;8384;47.996;7.786;2022-08-19T00:50:13;13.97;;;12.80;;
16543;SDS011;8384;47.996;7.786;2022-08-19T00:52:43;18.63;;;16.97;;
16543;SDS011;8384;47.996;7.786;2022-08-19T00:55:21;16.25;;;14.95;;
16543;SDS011;8384;47.996;7.786;2022-08-19T00:58:10;15.20;;;14.00;;
16543;SDS011;8384;47.996;7.786;2022-08-19T01:00:38;17.30;;;15.88;;
16543;SDS011;8384;47.996;7.786;2022-08-19T01:03:08;18.13;;;16.77;;
16543;SDS011;8384;47.996;7.786;2022-08-19T01:05:35;16.38;;;15.18;;
16543;SDS011;8384;47.996;7.786;2022-08-19T01:08:02;18.17;;;16.77;;
16543;SDS011;8384;47.996;7.786;2022-08-19T01:10:30;16.15;;;14.95;;
16543;SDS011;8384;47.996;7.786;2022-08-19T01:12:59;17.90;;;16.60;;
16543;SDS011;8384;47.996;7.786;2022-08-19T01:15:29;18.33;;;17.02;;
16543;SDS011;8384;47.996;7.786;2022-08-19T01:17:57;19.40;;;18.00;;
16543;SDS011;8384;47.996;7.786;2022-08-19T01:20:26;16.95;;;15.75;;
16543;SDS011;8384;47.996;7.786;2022-08-19T01:22:52;16.63;;;15.43;;
16543;SDS011;8384;47.996;7.786;2022-08-19T01:25:21;18.88;;;17.48;;
16543;SDS011;8384;47.996;7.786;2022-08-19T01:27:51;23.90;;;22.10;;
16543;SDS011;8384;47.996;7.786;2022-08-19T01:30:18;24.75;;;22.73;;
16543;SDS011;8384;47.996;7.786;2022-08-19T01:32:48;22.52;;;20.92;;
16543;SDS011;8384;47.996;7.786;2022-08-19T01:35:14;20.42;;;19.02;;
16543;SDS011;8384;47.996;7.786;2022-08-19T01:37:51;20.73;;;19.17;;
16543;SDS011;8384;47.996;7.786;2022-08-19T01:40:23;20.40;;;18.92;;
16543;SDS011;8384;47.996;7.786;2022-08-19T01:42:51;20.35;;;18.85;;
16543;SDS011;8384;47.996;7.786;2022-08-19T01:45:18;19.10;;;17.77;;
16543;SDS011;8384;47.996;7.786;2022-08-19T01:47:45;22.50;;;20.80;;
16543;SDS011;8384;47.996;7.786;2022-08-19T01:50:10;21.10;;;19.50;;
16543;SDS011;8384;47.996;7.786;2022-08-19T01:52:40;21.97;;;20.30;;
16543;SDS011;8384;47.996;7.786;2022-08-19T01:55:07;17.88;;;16.58;;
16543;SDS011;8384;47.996;7.786;2022-08-19T01:57:36;15.02;;;14.02;;
16543;SDS011;8384;47.996;7.786;2022-08-19T02:00:05;14.93;;;13.85;;
16543;SDS011;8384;47.996;7.786;2022-08-19T02:02:32;15.23;;;14.13;;
16543;SDS011;8384;47.996;7.786;2022-08-19T02:04:57;13.40;;;12.40;;
16543;SDS011;8384;47.996;7.786;2022-08-19T02:07:24;13.93;;;13.02;;
16543;SDS011;8384;47.996;7.786;2022-08-19T02:09:49;14.50;;;13.37;;
16543;SDS011;8384;47.996;7.786;2022-08-19T02:12:14;16.00;;;14.90;;
16543;SDS011;8384;47.996;7.786;2022-08-19T02:14:41;19.08;;;17.77;;
16543;SDS011;8384;47.996;7.786;2022-08-19T02:17:06;18.63;;;17.23;;
16543;SDS011;8384;47.996;7.786;2022-08-19T02:19:32;14.80;;;13.80;;
16543;SDS011;8384;47.996;7.786;2022-08-19T02:21:57;13.95;;;13.02;;
16543;SDS011;8384;47.996;7.786;2022-08-19T02:24:23;14.30;;;13.30;;
16543;SDS011;8384;47.996;7.786;2022-08-19T02:26:49;14.60;;;13.60;;
16543;SDS011;8384;47.996;7.786;2022-08-19T02:29:14;15.43;;;14.33;;
16543;SDS011;8384;47.996;7.786;2022-08-19T02:31:39;15.33;;;14.23;;
16543;SDS011;8384;47.996;7.786;2022-08-19T02:34:05;15.27;;;14.27;;
16543;SDS011;8384;47.996;7.786;2022-08-19T02:36:30;16.27;;;15.17;;
16543;SDS011;8384;47.996;7.786;2022-08-19T02:38:56;15.43;;;14.30;;
16543;SDS011;8384;47.996;7.786;2022-08-19T02:41:23;14.82;;;13.73;;
16543;SDS011;8384;47.996;7.786;2022-08-19T02:43:54;13.82;;;12.93;;
16543;SDS011;8384;47.996;7.786;2022-08-19T02:46:22;13.32;;;12.43;;
16543;SDS011;8384;47.996;7.786;2022-08-19T02:48:50;13.85;;;12.85;;
16543;SDS011;8384;47.996;7.786;2022-08-19T02:51:18;15.07;;;14.07;;
16543;SDS011;8384;47.996;7.786;2022-08-19T02:53:46;16.15;;;15.07;;
16543;SDS011;8384;47.996;7.786;2022-08-19T02:56:12;20.60;;;19.17;;
16543;SDS011;8384;47.996;7.786;2022-08-19T02:58:38;16.23;;;15.03;;
16543;SDS011;8384;47.996;7.786;2022-08-19T03:01:04;17.15;;;15.95;;
16543;SDS011;8384;47.996;7.786;2022-08-19T03:03:29;16.50;;;15.30;;
16543;SDS011;8384;47.996;7.786;2022-08-19T03:06:09;16.07;;;14.97;;
16543;SDS011;8384;47.996;7.786;2022-08-19T03:08:40;14.73;;;13.73;;
16543;SDS011;8384;47.996;7.786;2022-08-19T03:11:12;15.50;;;14.40;;
16543;SDS011;8384;47.996;7.786;2022-08-19T03:13:41;18.37;;;16.87;;
16543;SDS011;8384;47.996;7.786;2022-08-19T03:16:08;18.25;;;16.95;;
16543;SDS011;8384;47.996;7.786;2022-08-19T03:18:34;17.85;;;16.55;;
16543;SDS011;8384;47.996;7.786;2022-08-19T03:21:00;18.17;;;16.87;;
16543;SDS011;8384;47.996;7.786;2022-08-19T03:23:25;18.23;;;16.93;;
16543;SDS011;8384;47.996;7.786;2022-08-19T03:25:51;18.07;;;16.77;;
16543;SDS011;8384;47.996;7.786;2022-08-19T03:28:18;19.40;;;18.00;;
16543;SDS011;8384;47.996;7.786;2022-08-19T03:30:54;18.77;;;17.48;;
16543;SDS011;8384;47.996;7.786;2022-08-19T03:33:22;18.13;;;16.77;;
16543;SDS011;8384;47.996;7.786;2022-08-19T03:35:58;17.10;;;15.90;;
16543;SDS011;8384;47.996;7.786;2022-08-19T03:38:40;18.08;;;16.77;;
16543;SDS011;8384;47.996;7.786;2022-08-19T03:41:11;17.20;;;15.85;;
16543;SDS011;8384;47.996;7.786;2022-08-19T03:43:40;16.25;;;15.15;;
16543;SDS011;8384;47.996;7.786;2022-08-19T03:46:07;17.15;;;15.95;;
16543;SDS011;8384;47.996;7.786;2022-08-19T03:48:35;17.15;;;15.90;;
16543;SDS011;8384;47.996;7.786;2022-08-19T03:51:01;20.97;;;19.37;;
16543;SDS011;8384;47.996;7.786;2022-08-19T03:53:27;17.70;;;16.50;;
16543;SDS011;8384;47.996;7.786;2022-08-19T03:55:54;17.47;;;16.27;;
16543;SDS011;8384;47.996;7.786;2022-08-19T03:58:20;21.42;;;19.63;;
16543;SDS011;8384;47.996;7.786;2022-08-19T04:00:46;17.08;;;15.88;;
16543;SDS011;8384;47.996;7.786;2022-08-19T04:03:11;18.08;;;16.67;;
16543;SDS011;8384;47.996;7.786;2022-08-19T04:05:37;20.63;;;19.03;;
16543;SDS011;8384;47.996;7.786;2022-08-19T04:08:02;19.50;;;18.07;;
16543;SDS011;8384;47.996;7.786;2022-08-19T04:10:28;18.00;;;16.80;;
16543;SDS011;8384;47.996;7.786;2022-08-19T04:12:54;20.10;;;18.60;;
16543;SDS011;8384;47.996;7.786;2022-08-19T04:15:19;19.37;;;17.97;;
16543;SDS011;8384;47.996;7.786;2022-08-19T04:17:45;20.03;;;18.50;;
16543;SDS011;8384;47.996;7.786;2022-08-19T04:20:11;20.90;;;19.10;;
16543;SDS011;8384;47.996;7.786;2022-08-19T04:22:36;19.73;;;18.23;;
16543;SDS011;8384;47.996;7.786;2022-08-19T04:25:02;20.70;;;19.10;;
16543;SDS011;8384;47.996;7.786;2022-08-19T04:27:28;19.08;;;17.60;;
16543;SDS011;8384;47.996;7.786;2022-08-19T04:29:54;18.25;;;16.85;;
16543;SDS011;8384;47.996;7.786;2022-08-19T04:32:20;19.13;;;17.73;;
16543;SDS011;8384;47.996;7.786;2022-08-19T04:34:45;19.35;;;17.85;;
16543;SDS011;8384;47.996;7.786;2022-08-19T04:37:11;19.33;;;17.87;;
16543;SDS011;8384;47.996;7.786;2022-08-19T04:39:37;20.38;;;18.80;;
16543;SDS011;8384;47.996;7.786;2022-08-19T04:42:22;20.48;;;18.90;;
16543;SDS011;8384;47.996;7.786;2022-08-19T04:45:06;24.38;;;22.48;;
16543;SDS011;8384;47.996;7.786;2022-08-19T04:47:35;25.77;;;23.67;;
16543;SDS011;8384;47.996;7.786;2022-08-19T04:50:02;23.75;;;21.98;;
16543;SDS011;8384;47.996;7.786;2022-08-19T04:52:27;21.02;;;19.52;;
16543;SDS011;8384;47.996;7.786;2022-08-19T04:54:53;19.23;;;17.83;;
16543;SDS011;8384;47.996;7.786;2022-08-19T04:57:20;19.55;;;18.05;;
16543;SDS011;8384;47.996;7.786;2022-08-19T04:59:45;19.50;;;18.00;;
16543;SDS011;8384;47.996;7.786;2022-08-19T05:02:10;19.65;;;18.15;;
16543;SDS011;8384;47.996;7.786;2022-08-19T05:04:36;18.30;;;17.00;;
16543;SDS011;8384;47.996;7.786;2022-08-19T05:07:04;18.10;;;16.80;;
16543;SDS011;8384;47.996;7.786;2022-08-19T05:09:29;19.45;;;18.13;;
16543;SDS011;8384;47.996;7.786;2022-08-19T05:11:55;17.63;;;16.33;;
16543;SDS011;8384;47.996;7.786;2022-08-19T05:14:20;16.57;;;15.47;;
16543;SDS011;8384;47.996;7.786;2022-08-19T05:16:46;16.55;;;15.45;;
16543;SDS011;8384;47.996;7.786;2022-08-19T05:19:12;17.08;;;15.77;;
16543;SDS011;8384;47.996;7.786;2022-08-19T05:21:56;16.60;;;15.45;;
16543;SDS011;8384;47.996;7.786;2022-08-19T05:24:40;16.27;;;15.18;;
16543;SDS011;8384;47.996;7.786;2022-08-19T05:27:05;18.77;;;17.40;;
16543;SDS011;8384;47.996;7.786;2022-08-19T05:29:31;22.37;;;20.67;;
16543;SDS011;8384;47.996;7.786;2022-08-19T05:31:59;19.63;;;18.23;;
16543;SDS011;8384;47.996;7.786;2022-08-19T05:34:25;18.98;;;17.63;;
16543;SDS011;8384;47.996;7.786;2022-08-19T05:36:52;18.38;;;16.98;;
16543;SDS011;8384;47.996;7.786;2022-08-19T05:39:21;19.13;;;17.73;;
16543;SDS011;8384;47.996;7.786;2022-08-19T05:41:47;18.30;;;17.00;;
16543;SDS011;8384;47.996;7.786;2022-08-19T05:44:14;18.27;;;16.88;;
16543;SDS011;8384;47.996;7.786;2022-08-19T05:46:42;17.07;;;15.73;;
16543;SDS011;8384;47.996;7.786;2022-08-19T05:49:08;15.85;;;14.65;;
16543;SDS011;8384;47.996;7.786;2022-08-19T05:51:35;16.90;;;15.70;;
16543;SDS011;8384;47.996;7.786;2022-08-19T05:54:02;16.33;;;15.23;;
16543;SDS011;8384;47.996;7.786;2022-08-19T05:56:29;15.88;;;14.68;;
16543;SDS011;8384;47.996;7.786;2022-08-19T05:58:55;16.98;;;15.77;;
16543;SDS011;8384;47.996;7.786;2022-08-19T06:01:21;16.60;;;15.20;;
16543;SDS011;8384;47.996;7.786;2022-08-19T06:03:47;15.95;;;14.85;;
16543;SDS011;8384;47.996;7.786;2022-08-19T06:06:13;16.33;;;15.13;;
16543;SDS011;8384;47.996;7.786;2022-08-19T06:08:40;16.63;;;15.32;;
16543;SDS011;8384;47.996;7.786;2022-08-19T06:11:18;17.75;;;16.45;;
16543;SDS011;8384;47.996;7.786;2022-08-19T06:13:50;14.65;;;13.68;;
16543;SDS011;8384;47.996;7.786;2022-08-19T06:16:20;16.60;;;15.40;;
16543;SDS011;8384;47.996;7.786;2022-08-19T06:18:48;16.98;;;15.77;;
16543;SDS011;8384;47.996;7.786;2022-08-19T06:21:17;15.95;;;14.95;;
16543;SDS011;8384;47.996;7.786;2022-08-19T06:23:47;16.33;;;15.02;;
16543;SDS011;8384;47.996;7.786;2022-08-19T06:26:14;16.95;;;15.63;;
16543;SDS011;8384;47.996;7.786;2022-08-19T06:28:40;15.90;;;14.77;;
16543;SDS011;8384;47.996;7.786;2022-08-19T06:31:12;17.75;;;16.35;;
16543;SDS011;8384;47.996;7.786;2022-08-19T06:33:39;18.23;;;16.73;;
16543;SDS011;8384;47.996;7.786;2022-08-19T06:36:05;17.47;;;16.17;;
16543;SDS011;8384;47.996;7.786;2022-08-19T06:38:30;17.60;;;16.40;;
16543;SDS011;8384;47.996;7.786;2022-08-19T06:41:03;16.67;;;15.35;;
16543;SDS011;8384;47.996;7.786;2022-08-19T06:43:29;16.33;;;15.18;;
16543;SDS011;8384;47.996;7.786;2022-08-19T06:45:54;15.43;;;14.33;;
16543;SDS011;8384;47.996;7.786;2022-08-19T06:48:20;16.93;;;15.73;;
16543;SDS011;8384;47.996;7.786;2022-08-19T06:50:45;16.33;;;15.13;;
16543;SDS011;8384;47.996;7.786;2022-08-19T06:53:13;16.23;;;15.13;;
16543;SDS011;8384;47.996;7.786;2022-08-19T06:55:38;15.73;;;14.63;;
16543;SDS011;8384;47.996;7.786;2022-08-19T06:58:05;16.65;;;15.35;;
16543;SDS011;8384;47.996;7.786;2022-08-19T07:00:30;16.95;;;15.65;;
16543;SDS011;8384;47.996;7.786;2022-08-19T07:02:56;16.80;;;15.60;;
16543;SDS011;8384;47.996;7.786;2022-08-19T07:05:21;16.37;;;15.17;;
16543;SDS011;8384;47.996;7.786;2022-08-19T07:07:47;15.55;;;14.40;;
16543;SDS011;8384;47.996;7.786;2022-08-19T07:10:12;16.10;;;14.90;;
16543;SDS011;8384;47.996;7.786;2022-08-19T07:12:38;16.65;;;15.35;;
16543;SDS011;8384;47.996;7.786;2022-08-19T07:15:05;15.48;;;14.18;;
16543;SDS011;8384;47.996;7.786;2022-08-19T07:17:33;15.90;;;14.82;;
16543;SDS011;8384;47.996;7.786;2022-08-19T07:20:03;16.83;;;15.63;;
16543;SDS011;8384;47.996;7.786;2022-08-19T07:22:31;17.73;;;16.33;;
16543;SDS011;8384;47.996;7.786;2022-08-19T07:24:57;17.55;;;16.25;;
16543;SDS011;8384;47.996;7.786;2022-08-19T07:27:23;16.55;;;15.23;;
16543;SDS011;8384;47.996;7.786;2022-08-19T07:29:48;16.93;;;15.63;;
16543;SDS011;8384;47.996;7.786;2022-08-19T07:32:13;16.73;;;15.60;;
16543;SDS011;8384;47.996;7.786;2022-08-19T07:34:38;16.27;;;15.10;;
16543;SDS011;8384;47.996;7.786;2022-08-19T07:37:05;16.87;;;15.57;;
16543;SDS011;8384;47.996;7.786;2022-08-19T07:39:32;16.33;;;15.13;;
16543;SDS011;8384;47.996;7.786;2022-08-19T07:41:59;16.02;;;14.73;;
16543;SDS011;8384;47.996;7.786;2022-08-19T07:44:27;17.02;;;15.73;;
16543;SDS011;8384;47.996;7.786;2022-08-19T07:46:53;16.73;;;15.43;;
16543;SDS011;8384;47.996;7.786;2022-08-19T07:49:21;16.25;;;15.07;;
16543;SDS011;8384;47.996;7.786;2022-08-19T07:51:55;16.52;;;15.32;;
16543;SDS011;8384;47.996;7.786;2022-08-19T07:54:23;16.52;;;15.23;;
16543;SDS011;8384;47.996;7.786;2022-08-19T07:56:49;16.88;;;15.68;;
16543;SDS011;8384;47.996;7.786;2022-08-19T07:59:15;17.50;;;16.05;;
16543;SDS011;8384;47.996;7.786;2022-08-19T08:01:42;17.23;;;15.93;;
16543;SDS011;8384;47.996;7.786;2022-08-19T08:04:08;16.23;;;15.03;;
16543;SDS011;8384;47.996;7.786;2022-08-19T08:06:53;17.00;;;15.77;;
16543;SDS011;8384;47.996;7.786;2022-08-19T08:09:39;15.70;;;14.60;;
16543;SDS011;8384;47.996;7.786;2022-08-19T08:14:42;16.55;;;15.35;;
16543;SDS011;8384;47.996;7.786;2022-08-19T08:17:09;14.07;;;13.07;;
16543;SDS011;8384;47.996;7.786;2022-08-19T08:19:35;16.00;;;14.70;;
16543;SDS011;8384;47.996;7.786;2022-08-19T08:22:01;15.67;;;14.47;;
16543;SDS011;8384;47.996;7.786;2022-08-19T08:24:28;15.47;;;14.27;;
16543;SDS011;8384;47.996;7.786;2022-08-19T08:26:55;17.13;;;15.53;;
16543;SDS011;8384;47.996;7.786;2022-08-19T08:29:22;14.70;;;13.50;;
16543;SDS011;8384;47.996;7.786;2022-08-19T08:31:48;17.23;;;15.83;;
16543;SDS011;8384;47.996;7.786;2022-08-19T08:34:13;17.13;;;15.73;;
16543;SDS011;8384;47.996;7.786;2022-08-19T08:36:43;16.13;;;14.80;;
16543;SDS011;8384;47.996;7.786;2022-08-19T08:39:10;16.20;;;14.80;;
16543;SDS011;8384;47.996;7.786;2022-08-19T08:42:12;18.30;;;16.60;;
16543;SDS011;8384;47.996;7.786;2022-08-19T08:45:24;17.70;;;16.27;;
16543;SDS011;8384;47.996;7.786;2022-08-19T08:47:37;18.97;;;17.40;;
16543;SDS011;8384;47.996;7.786;2022-08-19T08:50:08;19.17;;;17.67;;
16543;SDS011;8384;47.996;7.786;2022-08-19T08:52:45;19.50;;;17.70;;
16543;SDS011;8384;47.996;7.786;2022-08-19T08:55:13;21.33;;;19.27;;
16543;SDS011;8384;47.996;7.786;2022-08-19T08:57:50;19.17;;;17.53;;
16543;SDS011;8384;47.996;7.786;2022-08-19T09:00:24;20.60;;;18.83;;
16543;SDS011;8384;47.996;7.786;2022-08-19T09:02:55;19.43;;;17.93;;
16543;SDS011;8384;47.996;7.786;2022-08-19T09:05:23;18.80;;;17.10;;
16543;SDS011;8384;47.996;7.786;2022-08-19T09:07:59;20.23;;;18.53;;
16543;SDS011;8384;47.996;7.786;2022-08-19T09:10:34;20.37;;;18.60;;
16543;SDS011;8384;47.996;7.786;2022-08-19T09:13:53;19.80;;;18.20;;
16543;SDS011;8384;47.996;7.786;2022-08-19T09:16:20;20.00;;;18.50;;
16543;SDS011;8384;47.996;7.786;2022-08-19T09:18:52;20.20;;;18.23;;
16543;SDS011;8384;47.996;7.786;2022-08-19T09:21:19;19.77;;;18.13;;
16543;SDS011;8384;47.996;7.786;2022-08-19T09:23:47;19.87;;;18.10;;
16543;SDS011;8384;47.996;7.786;2022-08-19T09:26:15;19.00;;;17.40;;
16543;SDS011;8384;47.996;7.786;2022-08-19T09:28:43;20.10;;;18.23;;
16543;SDS011;8384;47.996;7.786;2022-08-19T09:31:16;18.37;;;17.03;;
16543;SDS011;8384;47.996;7.786;2022-08-19T09:33:43;20.17;;;18.43;;
16543;SDS011;8384;47.996;7.786;2022-08-19T09:36:10;19.20;;;17.70;;
16543;SDS011;8384;47.996;7.786;2022-08-19T09:38:37;19.23;;;17.63;;
16543;SDS011;8384;47.996;7.786;2022-08-19T09:41:06;19.17;;;17.50;;
16543;SDS011;8384;47.996;7.786;2022-08-19T09:43:33;21.43;;;19.43;;
16543;SDS011;8384;47.996;7.786;2022-08-19T09:46:01;21.67;;;19.67;;
16543;SDS011;8384;47.996;7.786;2022-08-19T09:48:27;19.20;;;17.70;;
16543;SDS011;8384;47.996;7.786;2022-08-19T09:50:53;20.47;;;18.67;;
16543;SDS011;8384;47.996;7.786;2022-08-19T09:53:20;18.57;;;17.07;;
16543;SDS011;8384;47.996;7.786;2022-08-19T09:55:47;21.73;;;19.97;;
16543;SDS011;8384;47.996;7.786;2022-08-19T09:58:12;20.50;;;18.83;;
16543;SDS011;8384;47.996;7.786;2022-08-19T10:00:38;22.03;;;20.07;;
16543;SDS011;8384;47.996;7.786;2022-08-19T10:03:03;20.57;;;18.87;;
16543;SDS011;8384;47.996;7.786;2022-08-19T10:05:28;21.40;;;19.60;;
16543;SDS011;8384;47.996;7.786;2022-08-19T10:08:12;21.23;;;19.43;;
16543;SDS011;8384;47.996;7.786;2022-08-19T10:10:38;21.90;;;20.20;;
16543;SDS011;8384;47.996;7.786;2022-08-19T10:13:04;22.37;;;20.50;;
16543;SDS011;8384;47.996;7.786;2022-08-19T10:15:29;22.03;;;20.23;;
16543;SDS011;8384;47.996;7.786;2022-08-19T10:17:55;20.43;;;18.63;;
16543;SDS011;8384;47.996;7.786;2022-08-19T10:20:20;20.90;;;19.20;;
16543;SDS011;8384;47.996;7.786;2022-08-19T10:22:47;20.53;;;18.77;;
16543;SDS011;8384;47.996;7.786;2022-08-19T10:25:12;22.13;;;20.33;;
16543;SDS011;8384;47.996;7.786;2022-08-19T10:27:41;22.17;;;20.47;;
16543;SDS011;8384;47.996;7.786;2022-08-19T10:30:06;20.77;;;19.13;;
16543;SDS011;8384;47.996;7.786;2022-08-19T10:32:33;21.57;;;19.67;;
16543;SDS011;8384;47.996;7.786;2022-08-19T10:34:58;21.83;;;20.03;;
16543;SDS011;8384;47.996;7.786;2022-08-19T10:37:24;20.67;;;18.97;;
16543;SDS011;8384;47.996;7.786;2022-08-19T10:39:49;21.97;;;19.80;;
16543;SDS011;8384;47.996;7.786;2022-08-19T10:42:15;20.83;;;19.13;;
16543;SDS011;8384;47.996;7.786;2022-08-19T10:44:43;21.73;;;19.87;;
16543;SDS011;8384;47.996;7.786;2022-08-19T10:47:09;23.10;;;21.17;;
16543;SDS011;8384;47.996;7.786;2022-08-19T10:49:35;22.40;;;20.50;;
16543;SDS011;8384;47.996;7.786;2022-08-19T10:52:20;22.17;;;20.27;;
16543;SDS011;8384;47.996;7.786;2022-08-19T10:55:02;21.07;;;19.30;;
16543;SDS011;8384;47.996;7.786;2022-08-19T10:57:47;21.53;;;19.67;;
16543;SDS011;8384;47.996;7.786;2022-08-19T11:00:12;18.33;;;16.83;;
16543;SDS011;8384;47.996;7.786;2022-08-19T11:02:38;19.73;;;18.13;;
16543;SDS011;8384;47.996;7.786;2022-08-19T11:05:04;19.10;;;17.50;;
16543;SDS011;8384;47.996;7.786;2022-08-19T11:07:30;20.60;;;18.73;;
16543;SDS011;8384;47.996;7.786;2022-08-19T11:09:55;21.30;;;19.27;;
16543;SDS011;8384;47.996;7.786;2022-08-19T11:12:21;20.33;;;18.53;;
16543;SDS011;8384;47.996;7.786;2022-08-19T11:14:46;19.83;;;18.10;;
16543;SDS011;8384;47.996;7.786;2022-08-19T11:17:12;19.87;;;18.17;;
16543;SDS011;8384;47.996;7.786;2022-08-19T11:19:38;20.70;;;19.00;;
16543;SDS011;8384;47.996;7.786;2022-08-19T11:22:06;20.37;;;18.77;;
16543;SDS011;8384;47.996;7.786;2022-08-19T11:24:34;19.37;;;17.57;;
16543;SDS011;8384;47.996;7.786;2022-08-19T11:27:01;19.97;;;18.17;;
16543;SDS011;8384;47.996;7.786;2022-08-19T11:29:34;19.53;;;18.03;;
16543;SDS011;8384;47.996;7.786;2022-08-19T11:32:03;19.77;;;18.17;;
16543;SDS011;8384;47.996;7.786;2022-08-19T11:34:31;19.30;;;17.80;;
16543;SDS011;8384;47.996;7.786;2022-08-19T11:36:57;22.00;;;20.30;;
16543;SDS011;8384;47.996;7.786;2022-08-19T11:39:24;21.40;;;19.70;;
16543;SDS011;8384;47.996;7.786;2022-08-19T11:41:51;19.83;;;18.23;;
16543;SDS011;8384;47.996;7.786;2022-08-19T11:44:16;21.20;;;19.40;;
16543;SDS011;8384;47.996;7.786;2022-08-19T11:46:42;21.23;;;19.43;;
16543;SDS011;8384;47.996;7.786;2022-08-19T11:49:11;20.73;;;19.03;;
16543;SDS011;8384;47.996;7.786;2022-08-19T11:51:37;20.90;;;19.07;;
16543;SDS011;8384;47.996;7.786;2022-08-19T11:54:03;21.60;;;19.80;;
16543;SDS011;8384;47.996;7.786;2022-08-19T11:56:30;21.60;;;19.70;;
16543;SDS011;8384;47.996;7.786;2022-08-19T11:58:55;20.03;;;18.27;;
16543;SDS011;8384;47.996;7.786;2022-08-19T12:01:25;18.37;;;16.97;;
16543;SDS011;8384;47.996;7.786;2022-08-19T12:03:52;18.43;;;16.70;;
16543;SDS011;8384;47.996;7.786;2022-08-19T12:06:20;19.83;;;18.13;;
16543;SDS011;8384;47.996;7.786;2022-08-19T12:08:50;20.13;;;18.43;;
16543;SDS011;8384;47.996;7.786;2022-08-19T12:11:16;20.10;;;18.40;;
16543;SDS011;8384;47.996;7.786;2022-08-19T12:13:41;21.17;;;19.53;;
16543;SDS011;8384;47.996;7.786;2022-08-19T12:16:11;19.00;;;17.50;;
16543;SDS011;8384;47.996;7.786;2022-08-19T12:18:40;18.63;;;17.17;;
16543;SDS011;8384;47.996;7.786;2022-08-19T12:21:11;19.10;;;17.60;;
16543;SDS011;8384;47.996;7.786;2022-08-19T12:23:38;21.23;;;19.57;;
16543;SDS011;8384;47.996;7.786;2022-08-19T12:26:04;20.07;;;18.47;;
16543;SDS011;8384;47.996;7.786;2022-08-19T12:28:30;19.77;;;18.17;;
16543;SDS011;8384;47.996;7.786;2022-08-19T12:30:55;20.20;;;18.47;;
16543;SDS011;8384;47.996;7.786;2022-08-19T12:33:21;18.70;;;17.20;;
16543;SDS011;8384;47.996;7.786;2022-08-19T12:35:49;17.23;;;15.83;;
16543;SDS011;8384;47.996;7.786;2022-08-19T12:38:16;17.20;;;15.73;;
16543;SDS011;8384;47.996;7.786;2022-08-19T12:40:41;17.87;;;16.53;;
16543;SDS011;8384;47.996;7.786;2022-08-19T12:43:09;16.77;;;15.33;;
16543;SDS011;8384;47.996;7.786;2022-08-19T12:45:36;15.47;;;14.17;;
16543;SDS011;8384;47.996;7.786;2022-08-19T12:48:02;15.17;;;14.03;;
16543;SDS011;8384;47.996;7.786;2022-08-19T12:50:27;14.97;;;13.83;;
16543;SDS011;8384;47.996;7.786;2022-08-19T12:52:53;16.17;;;14.73;;
16543;SDS011;8384;47.996;7.786;2022-08-19T12:55:18;16.63;;;15.43;;
16543;SDS011;8384;47.996;7.786;2022-08-19T12:57:44;19.30;;;17.70;;
16543;SDS011;8384;47.996;7.786;2022-08-19T13:00:10;17.33;;;15.93;;
16543;SDS011;8384;47.996;7.786;2022-08-19T13:02:39;19.93;;;18.23;;
16543;SDS011;8384;47.996;7.786;2022-08-19T13:05:07;17.90;;;16.43;;
16543;SDS011;8384;47.996;7.786;2022-08-19T13:07:34;17.50;;;16.10;;
16543;SDS011;8384;47.996;7.786;2022-08-19T13:10:02;15.07;;;13.93;;
16543;SDS011;8384;47.996;7.786;2022-08-19T13:12:27;16.13;;;14.93;;
16543;SDS011;8384;47.996;7.786;2022-08-19T13:14:53;14.83;;;13.73;;
16543;SDS011;8384;47.996;7.786;2022-08-19T13:17:19;14.33;;;13.33;;
16543;SDS011;8384;47.996;7.786;2022-08-19T13:19:45;14.83;;;13.70;;
16543;SDS011;8384;47.996;7.786;2022-08-19T13:22:10;15.70;;;14.60;;
16543;SDS011;8384;47.996;7.786;2022-08-19T13:24:37;14.43;;;13.37;;
16543;SDS011;8384;47.996;7.786;2022-08-19T13:27:02;16.00;;;14.70;;
16543;SDS011;8384;47.996;7.786;2022-08-19T13:29:28;14.73;;;13.63;;
16543;SDS011;8384;47.996;7.786;2022-08-19T13:32:11;15.50;;;14.27;;
16543;SDS011;8384;47.996;7.786;2022-08-19T13:34:55;14.00;;;12.90;;
16543;SDS011;8384;47.996;7.786;2022-08-19T13:37:21;11.97;;;11.13;;
16543;SDS011;8384;47.996;7.786;2022-08-19T13:40:06;11.23;;;10.53;;
16543;SDS011;8384;47.996;7.786;2022-08-19T13:42:44;12.17;;;11.00;;
16543;SDS011;8384;47.996;7.786;2022-08-19T13:45:11;10.27;;;9.57;;
16543;SDS011;8384;47.996;7.786;2022-08-19T13:47:37;11.17;;;10.27;;
16543;SDS011;8384;47.996;7.786;2022-08-19T13:50:07;11.43;;;10.53;;
16543;SDS011;8384;47.996;7.786;2022-08-19T13:52:34;8.90;;;8.30;;
16543;SDS011;8384;47.996;7.786;2022-08-19T13:54:59;10.60;;;9.80;;
16543;SDS011;8384;47.996;7.786;2022-08-19T13:57:25;11.10;;;10.30;;
16543;SDS011;8384;47.996;7.786;2022-08-19T13:59:50;12.30;;;11.30;;
16543;SDS011;8384;47.996;7.786;2022-08-19T14:02:15;10.60;;;9.90;;
16543;SDS011;8384;47.996;7.786;2022-08-19T14:04:40;10.80;;;10.00;;
16543;SDS011;8384;47.996;7.786;2022-08-19T14:07:06;12.80;;;11.83;;
16543;SDS011;8384;47.996;7.786;2022-08-19T14:09:31;14.27;;;13.27;;
16543;SDS011;8384;47.996;7.786;2022-08-19T14:11:56;12.90;;;12.00;;
16543;SDS011;8384;47.996;7.786;2022-08-19T14:14:22;13.17;;;12.13;;
16543;SDS011;8384;47.996;7.786;2022-08-19T14:16:47;15.83;;;14.67;;
16543;SDS011;8384;47.996;7.786;2022-08-19T14:19:13;13.07;;;11.93;;
16543;SDS011;8384;47.996;7.786;2022-08-19T14:21:39;13.97;;;12.70;;
16543;SDS011;8384;47.996;7.786;2022-08-19T14:24:06;14.33;;;13.10;;
16543;SDS011;8384;47.996;7.786;2022-08-19T14:26:32;14.60;;;13.60;;
16543;SDS011;8384;47.996;7.786;2022-08-19T14:28:57;15.93;;;14.73;;
16543;SDS011;8384;47.996;7.786;2022-08-19T14:31:23;17.33;;;15.70;;
16543;SDS011;8384;47.996;7.786;2022-08-19T14:33:49;17.53;;;16.03;;
16543;SDS011;8384;47.996;7.786;2022-08-19T14:36:15;15.80;;;14.30;;
16543;SDS011;8384;47.996;7.786;2022-08-19T14:38:41;16.97;;;15.77;;
16543;SDS011;8384;47.996;7.786;2022-08-19T14:41:09;19.47;;;17.87;;
16543;SDS011;8384;47.996;7.786;2022-08-19T14:43:41;18.53;;;17.13;;